KPWM/PWM METAR and TAF weather

Enter ICAO airport designator
Station Type Date Time Source
KPWM METAR 2022/12/08 12:51 UTC NOAA

KPWM 081251Z 30005KT 10SM CLR 04/03 A3009 RMK AO2 SLP190 T00440033


Station Type Date Time Source
KPWM Decoded METAR 2022/12/08 12:51 UTC NOAA

PORTLAND INTERNATIONAL JETPORT, ME, United States (KPWM) 43-39N 70-18W 15M
Dec 08, 2022 - 07:51 AM EST / 2022.12.08 1251 UTC
Wind: from the WNW (300 degrees) at 6 MPH (5 KT):0
Visibility: 10 mile(s):0
Sky conditions: clear
Temperature: 39.9 F (4.4 C)
Dew Point: 37.9 F (3.3 C)
Relative Humidity: 92%
Pressure (altimeter): 30.09 in. Hg (1018 hPa)
ob: KPWM 081251Z 30005KT 10SM CLR 04/03 A3009 RMK AO2 SLP190 T00440033
cycle: 13

Station Type Date Time Source
KPWM TAF 2022/12/08 12:30 UTC NOAA

TAF KPWM 081126Z 0812/0912 32009KT P6SM FEW050
FM081400 32012G18KT P6SM FEW050

Example: see airport list